createdAt,value
2018-03-22T00:00:38.962Z,49.40
2018-03-22T00:03:06.606Z,51.17
2018-03-22T00:05:34.211Z,49.43
2018-03-22T00:08:02.017Z,48.00
2018-03-22T00:10:29.653Z,46.57
2018-03-22T00:12:57.251Z,51.27
2018-03-22T00:15:24.853Z,44.60
2018-03-22T00:17:52.488Z,42.50
2018-03-22T00:20:20.073Z,44.17
2018-03-22T00:22:47.686Z,45.87
2018-03-22T00:25:15.319Z,44.67
2018-03-22T00:27:42.919Z,42.90
2018-03-22T00:30:10.613Z,43.87
2018-03-22T00:32:38.257Z,43.93
2018-03-22T00:35:05.848Z,44.87
2018-03-22T00:37:33.445Z,47.07
2018-03-22T00:40:01.065Z,42.33
2018-03-22T00:42:28.647Z,42.90
2018-03-22T00:44:56.271Z,42.57
2018-03-22T00:47:23.901Z,39.10
2018-03-22T00:49:51.492Z,42.17
2018-03-22T00:52:19.081Z,40.47
2018-03-22T00:54:46.711Z,41.70
2018-03-22T00:57:14.302Z,40.53
2018-03-22T00:59:41.907Z,38.63
2018-03-22T01:02:09.539Z,43.60
2018-03-22T01:04:37.128Z,43.33
2018-03-22T01:07:04.722Z,44.83
2018-03-22T01:09:32.362Z,42.83
2018-03-22T01:11:59.957Z,44.90
2018-03-22T01:14:27.553Z,46.30
2018-03-22T01:16:55.190Z,45.57
2018-03-22T01:19:22.777Z,45.93
2018-03-22T01:21:50.362Z,47.90
2018-03-22T01:24:18.002Z,46.83
2018-03-22T01:26:45.602Z,45.80
2018-03-22T01:29:13.197Z,44.83
2018-03-22T01:31:40.836Z,43.77
2018-03-22T01:34:08.466Z,43.20
2018-03-22T01:36:36.053Z,41.97
2018-03-22T01:39:03.776Z,45.30
2018-03-22T01:41:31.367Z,42.23
2018-03-22T01:43:59.003Z,43.90
2018-03-22T01:46:26.626Z,42.47
2018-03-22T01:48:54.241Z,46.87
2018-03-22T01:51:21.839Z,40.43
2018-03-22T01:53:49.476Z,40.83
2018-03-22T01:56:17.074Z,41.00
2018-03-22T01:58:44.666Z,38.93
2018-03-22T02:01:12.298Z,43.70
2018-03-22T02:03:39.910Z,37.43
2018-03-22T02:06:07.497Z,35.33
2018-03-22T02:08:35.134Z,34.83
2018-03-22T02:11:02.736Z,36.97
2018-03-22T02:13:30.337Z,35.60
2018-03-22T02:15:57.967Z,34.43
2018-03-22T02:18:25.576Z,35.50
2018-03-22T02:20:53.176Z,35.23
2018-03-22T02:23:20.825Z,32.97
2018-03-22T02:25:48.419Z,34.53
2018-03-22T02:28:16.019Z,35.27
2018-03-22T02:30:43.665Z,35.10
2018-03-22T02:33:11.258Z,36.83
2018-03-22T02:35:38.867Z,35.10
2018-03-22T02:38:06.514Z,34.10
2018-03-22T02:40:34.124Z,33.50
2018-03-22T02:43:01.724Z,35.23
2018-03-22T02:45:29.383Z,33.73
2018-03-22T02:47:57.003Z,37.63
2018-03-22T02:50:24.603Z,37.47
2018-03-22T02:52:52.242Z,37.63
2018-03-22T02:55:19.834Z,37.00
2018-03-22T02:57:47.437Z,37.33
2018-03-22T03:00:15.078Z,39.17
2018-03-22T03:02:42.679Z,41.23
2018-03-22T03:05:10.274Z,38.40
2018-03-22T03:07:37.905Z,40.87
2018-03-22T03:10:05.503Z,42.23
2018-03-22T03:12:33.101Z,42.30
2018-03-22T03:15:00.731Z,41.47
2018-03-22T03:17:28.370Z,38.13
2018-03-22T03:19:55.960Z,38.10
2018-03-22T03:22:23.586Z,38.73
2018-03-22T03:24:51.183Z,39.20
2018-03-22T03:27:18.788Z,38.77
2018-03-22T03:29:46.422Z,42.40
2018-03-22T03:32:14.014Z,42.70
2018-03-22T03:34:41.601Z,40.13
2018-03-22T03:37:09.240Z,41.70
2018-03-22T03:39:36.879Z,40.50
2018-03-22T03:42:04.478Z,41.40
2018-03-22T03:44:32.106Z,40.63
2018-03-22T03:46:59.697Z,40.40
2018-03-22T03:49:27.289Z,40.57
2018-03-22T03:51:54.909Z,37.97
2018-03-22T03:54:22.513Z,40.63
2018-03-22T03:56:50.110Z,39.40
2018-03-22T03:59:17.739Z,42.13
2018-03-22T04:01:45.336Z,36.90
2018-03-22T04:04:12.963Z,36.37
2018-03-22T04:06:40.588Z,38.47
2018-03-22T04:09:08.187Z,41.10
2018-03-22T04:11:35.790Z,38.60
2018-03-22T04:14:03.420Z,38.60
2018-03-22T04:16:31.007Z,41.43
2018-03-22T04:18:58.606Z,44.53
2018-03-22T04:21:26.245Z,40.50
2018-03-22T04:23:53.842Z,40.23
2018-03-22T04:26:21.452Z,43.67
2018-03-22T04:28:49.095Z,41.83
2018-03-22T04:31:16.690Z,39.60
2018-03-22T04:33:44.290Z,40.80
2018-03-22T04:36:11.923Z,36.23
2018-03-22T04:38:39.515Z,35.57
2018-03-22T04:41:07.115Z,35.10
2018-03-22T04:43:34.754Z,38.67
2018-03-22T04:46:02.342Z,40.50
2018-03-22T04:48:30.033Z,46.03
2018-03-22T04:50:57.688Z,44.93
2018-03-22T04:53:25.314Z,39.27
2018-03-22T04:55:52.908Z,43.73
2018-03-22T04:58:20.503Z,37.83
2018-03-22T05:00:48.129Z,38.73
2018-03-22T05:03:15.721Z,39.50
2018-03-22T05:05:43.356Z,40.20
2018-03-22T05:08:10.997Z,41.10
2018-03-22T05:10:38.590Z,39.50
2018-03-22T05:13:06.295Z,40.23
2018-03-22T05:15:33.933Z,40.37
2018-03-22T05:18:01.517Z,43.13
2018-03-22T05:20:29.225Z,43.90
2018-03-22T05:22:56.845Z,41.13
2018-03-22T05:25:24.437Z,42.77
2018-03-22T05:27:52.040Z,44.63
2018-03-22T05:30:19.658Z,41.43
2018-03-22T05:32:47.265Z,41.50
2018-03-22T05:35:14.854Z,41.70
2018-03-22T05:37:42.486Z,41.90
2018-03-22T05:40:10.088Z,44.03
2018-03-22T05:42:37.709Z,42.80
2018-03-22T05:45:05.343Z,44.93
2018-03-22T05:47:33.026Z,47.83
2018-03-22T05:50:00.656Z,45.43
2018-03-22T05:52:28.291Z,48.13
2018-03-22T05:54:55.880Z,51.67
2018-03-22T05:57:23.492Z,46.90
2018-03-22T05:59:51.123Z,45.83
2018-03-22T06:02:18.708Z,41.00
2018-03-22T06:04:46.296Z,34.83
2018-03-22T06:07:13.915Z,40.50
2018-03-22T06:09:41.521Z,43.50
2018-03-22T06:12:09.112Z,40.20
2018-03-22T06:14:36.730Z,38.93
2018-03-22T06:17:04.313Z,36.50
2018-03-22T06:19:31.901Z,35.13
2018-03-22T06:21:59.536Z,33.67
2018-03-22T06:24:27.132Z,29.13
2018-03-22T06:26:54.725Z,26.83
2018-03-22T06:29:22.357Z,29.17
2018-03-22T06:31:49.952Z,28.93
2018-03-22T06:34:17.539Z,28.10
2018-03-22T06:36:45.167Z,27.63
2018-03-22T06:39:12.773Z,28.07
2018-03-22T06:41:40.364Z,29.27
2018-03-22T06:44:07.987Z,30.90
2018-03-22T06:46:35.580Z,31.57
2018-03-22T06:49:03.172Z,32.10
2018-03-22T06:51:30.834Z,32.70
2018-03-22T06:53:58.428Z,33.20
2018-03-22T06:56:26.055Z,32.50
2018-03-22T06:58:53.706Z,30.40
2018-03-22T07:01:21.299Z,26.90
2018-03-22T07:03:48.893Z,27.20
2018-03-22T07:06:16.557Z,31.43
2018-03-22T07:08:44.150Z,25.63
2018-03-22T07:11:11.737Z,25.93
2018-03-22T07:13:39.358Z,24.97
2018-03-22T07:16:06.972Z,26.00
2018-03-22T07:18:35.486Z,23.80
2018-03-22T07:21:03.101Z,24.93
2018-03-22T07:23:30.688Z,28.10
2018-03-22T07:25:58.315Z,30.00
2018-03-22T07:28:25.937Z,26.20
2018-03-22T07:30:53.532Z,24.63
2018-03-22T07:33:21.119Z,28.00
2018-03-22T07:35:48.750Z,26.07
2018-03-22T07:38:16.340Z,26.00
2018-03-22T07:40:43.934Z,28.17
2018-03-22T07:43:17.050Z,28.27
2018-03-22T07:45:44.812Z,28.27
2018-03-22T07:48:12.449Z,28.70
2018-03-22T07:50:40.152Z,27.37
2018-03-22T07:53:07.735Z,28.63
2018-03-22T07:55:35.375Z,29.03
2018-03-22T07:58:03.022Z,25.93
2018-03-22T08:00:30.685Z,29.07
2018-03-22T08:03:01.657Z,25.20
2018-03-22T08:05:29.328Z,28.23
2018-03-22T08:07:56.923Z,27.07
2018-03-22T08:10:24.502Z,24.13
2018-03-22T08:12:52.137Z,26.10
2018-03-22T08:15:19.766Z,23.90
2018-03-22T08:17:47.360Z,24.73
2018-03-22T08:20:14.990Z,26.70
2018-03-22T08:22:42.587Z,26.20
2018-03-22T08:25:10.198Z,26.77
2018-03-22T08:27:37.832Z,25.60
2018-03-22T08:30:05.425Z,26.87
2018-03-22T08:32:33.077Z,23.80
2018-03-22T08:35:00.709Z,23.20
2018-03-22T08:37:28.310Z,25.93
2018-03-22T08:39:55.899Z,26.00
2018-03-22T08:42:23.531Z,25.80
2018-03-22T08:44:51.130Z,26.43
2018-03-22T08:47:18.723Z,24.17
2018-03-22T08:49:46.349Z,20.13
2018-03-22T08:52:13.914Z,25.60
2018-03-22T08:54:41.511Z,24.80
2018-03-22T08:57:09.140Z,21.77
2018-03-22T08:59:36.752Z,22.90
2018-03-22T09:02:04.342Z,22.57
2018-03-22T09:04:31.966Z,19.87
2018-03-22T09:06:59.559Z,20.97
2018-03-22T09:09:27.150Z,21.70
2018-03-22T09:11:54.774Z,21.10
2018-03-22T09:14:22.505Z,21.20
2018-03-22T09:16:49.988Z,16.77
2018-03-22T09:19:17.625Z,18.90
2018-03-22T09:21:45.217Z,17.60
2018-03-22T09:24:12.856Z,14.63
2018-03-22T09:26:45.904Z,20.87
2018-03-22T09:29:13.498Z,15.43
2018-03-22T09:31:41.098Z,18.23
2018-03-22T09:34:08.747Z,18.77
2018-03-22T09:36:36.398Z,17.90
2018-03-22T09:39:04.169Z,12.73
2018-03-22T09:41:31.826Z,13.77
2018-03-22T09:44:01.164Z,16.37
2018-03-22T09:46:29.661Z,18.07
2018-03-22T09:48:57.438Z,13.53
2018-03-22T09:51:25.051Z,16.50
2018-03-22T09:53:52.663Z,16.80
2018-03-22T09:56:20.344Z,15.77
2018-03-22T09:58:47.971Z,16.47
2018-03-22T10:01:15.602Z,14.27
2018-03-22T10:03:43.318Z,16.90
2018-03-22T10:06:10.935Z,14.40
2018-03-22T10:08:38.561Z,15.87
2018-03-22T10:11:06.204Z,14.30
2018-03-22T10:13:33.845Z,18.83
2018-03-22T10:16:01.419Z,16.63
2018-03-22T10:18:29.036Z,14.27
2018-03-22T10:20:56.627Z,16.70
2018-03-22T10:23:25.017Z,15.10
2018-03-22T10:25:52.679Z,14.90
2018-03-22T10:28:20.262Z,17.30
2018-03-22T10:30:47.842Z,15.10
2018-03-22T10:33:15.458Z,17.50
2018-03-22T10:35:43.049Z,14.30
2018-03-22T10:38:10.635Z,16.97
2018-03-22T10:40:38.253Z,20.80
2018-03-22T10:43:05.832Z,20.40
2018-03-22T10:45:33.401Z,21.17
2018-03-22T10:48:01.014Z,19.00
2018-03-22T10:50:28.598Z,19.90
2018-03-22T10:52:56.189Z,14.40
2018-03-22T10:55:23.826Z,18.50
2018-03-22T10:57:51.414Z,20.07
2018-03-22T11:00:24.511Z,20.00
2018-03-22T11:02:53.855Z,21.07
2018-03-22T11:05:21.455Z,21.47
2018-03-22T11:07:49.084Z,20.93
2018-03-22T11:10:16.660Z,20.50
2018-03-22T11:12:44.248Z,21.37
2018-03-22T11:15:11.887Z,20.40
2018-03-22T11:17:39.498Z,13.43
2018-03-22T11:20:07.123Z,19.07
2018-03-22T11:22:34.794Z,17.47
2018-03-22T11:25:02.391Z,18.90
2018-03-22T11:27:30.003Z,19.57
2018-03-22T11:29:57.637Z,17.90
2018-03-22T11:32:25.224Z,18.83
2018-03-22T11:34:52.801Z,21.00
2018-03-22T11:37:20.455Z,19.27
2018-03-22T11:39:48.074Z,21.97
2018-03-22T11:42:15.642Z,23.23
2018-03-22T11:44:43.318Z,25.20
2018-03-22T11:47:10.893Z,19.00
2018-03-22T11:49:38.446Z,19.50
2018-03-22T11:52:06.052Z,24.30
2018-03-22T11:54:33.634Z,23.77
2018-03-22T11:57:01.216Z,24.67
2018-03-22T11:59:28.845Z,25.40
2018-03-22T12:01:56.464Z,25.20
2018-03-22T12:04:24.079Z,28.53
2018-03-22T12:06:51.789Z,20.77
2018-03-22T12:09:19.398Z,21.13
2018-03-22T12:11:47.021Z,24.07
2018-03-22T12:14:14.742Z,22.50
2018-03-22T12:16:42.364Z,24.23
2018-03-22T12:19:09.998Z,21.93
2018-03-22T12:21:37.700Z,21.63
2018-03-22T12:24:05.380Z,21.93
2018-03-22T12:26:33.020Z,22.60
2018-03-22T12:29:00.691Z,20.50
2018-03-22T12:31:28.301Z,22.37
2018-03-22T12:33:55.915Z,22.87
2018-03-22T12:36:23.564Z,21.60
2018-03-22T12:38:51.184Z,19.10
2018-03-22T12:41:18.778Z,20.20
2018-03-22T12:43:46.440Z,20.20
2018-03-22T12:46:14.034Z,18.33
2018-03-22T12:48:41.620Z,23.50
2018-03-22T12:51:09.248Z,20.83
2018-03-22T12:53:36.822Z,21.80
2018-03-22T12:56:04.454Z,20.30
2018-03-22T12:58:32.086Z,23.47
2018-03-22T13:00:59.666Z,22.80
2018-03-22T13:03:27.255Z,18.20
2018-03-22T13:05:54.876Z,23.67
2018-03-22T13:08:22.459Z,21.87
2018-03-22T13:10:50.038Z,24.13
2018-03-22T13:13:17.700Z,25.07
2018-03-22T13:15:45.302Z,25.10
2018-03-22T13:18:12.877Z,24.53
2018-03-22T13:20:40.486Z,22.20
2018-03-22T13:23:08.068Z,23.97
2018-03-22T13:25:35.653Z,21.50
2018-03-22T13:28:03.264Z,24.87
2018-03-22T13:30:30.834Z,23.73
2018-03-22T13:32:58.409Z,23.77
2018-03-22T13:35:26.019Z,23.60
2018-03-22T13:37:53.603Z,22.87
2018-03-22T13:40:21.214Z,24.37
2018-03-22T13:42:48.849Z,23.70
2018-03-22T13:45:16.495Z,23.90
2018-03-22T13:47:44.074Z,28.03
2018-03-22T13:50:11.699Z,23.70
2018-03-22T13:52:39.268Z,24.87
2018-03-22T13:55:06.846Z,25.60
2018-03-22T13:57:34.462Z,24.80
2018-03-22T14:00:02.031Z,22.50
2018-03-22T14:02:29.612Z,23.73
2018-03-22T14:04:57.219Z,23.07
2018-03-22T14:07:24.789Z,26.23
2018-03-22T14:09:52.359Z,21.37
2018-03-22T14:12:19.981Z,23.20
2018-03-22T14:14:47.598Z,23.77
2018-03-22T14:17:15.207Z,22.90
2018-03-22T14:19:42.811Z,24.87
2018-03-22T14:22:10.378Z,20.80
2018-03-22T14:24:37.980Z,25.07
2018-03-22T14:27:05.603Z,22.50
2018-03-22T14:29:33.164Z,27.03
2018-03-22T14:32:00.746Z,21.93
2018-03-22T14:34:28.368Z,22.63
2018-03-22T14:36:55.928Z,22.70
2018-03-22T14:39:23.505Z,19.27
2018-03-22T14:41:51.126Z,19.93
2018-03-22T14:44:18.706Z,26.17
2018-03-22T14:46:46.345Z,30.70
2018-03-22T14:49:14.012Z,26.40
2018-03-22T14:51:41.581Z,28.30
2018-03-22T14:54:09.338Z,29.00
2018-03-22T14:56:36.948Z,26.60
2018-03-22T14:59:04.540Z,23.80
2018-03-22T15:01:32.147Z,28.87
2018-03-22T15:03:59.757Z,25.93
2018-03-22T15:06:30.885Z,25.13
2018-03-22T15:09:02.225Z,25.37
2018-03-22T15:11:34.147Z,24.90
2018-03-22T15:14:02.191Z,19.80
2018-03-22T15:16:29.780Z,27.77
2018-03-22T15:18:57.412Z,27.40
2018-03-22T15:21:28.860Z,23.40
2018-03-22T15:24:01.231Z,25.00
2018-03-22T15:26:29.319Z,18.70
2018-03-22T15:28:56.911Z,15.80
2018-03-22T15:31:24.488Z,24.00
2018-03-22T15:33:52.105Z,21.87
2018-03-22T15:36:19.675Z,27.87
2018-03-22T15:38:47.257Z,28.50
2018-03-22T15:41:14.970Z,26.20
2018-03-22T15:43:42.557Z,30.13
2018-03-22T15:46:10.214Z,28.47
2018-03-22T15:48:37.853Z,29.77
2018-03-22T15:51:05.458Z,27.63
2018-03-22T15:53:33.043Z,23.90
2018-03-22T15:56:00.689Z,27.33
2018-03-22T15:58:28.273Z,29.33
2018-03-22T16:00:55.894Z,28.27
2018-03-22T16:03:23.573Z,26.87
2018-03-22T16:05:51.158Z,24.53
2018-03-22T16:08:18.738Z,28.80
2018-03-22T16:10:46.361Z,28.20
2018-03-22T16:13:13.942Z,26.27
2018-03-22T16:15:41.514Z,28.13
2018-03-22T16:18:09.141Z,28.80
2018-03-22T16:20:36.730Z,24.33
2018-03-22T16:23:04.305Z,26.30
2018-03-22T16:25:31.927Z,27.57
2018-03-22T16:27:59.524Z,28.67
2018-03-22T16:30:27.121Z,26.87
2018-03-22T16:32:54.770Z,29.40
2018-03-22T16:35:22.360Z,27.93
2018-03-22T16:37:49.995Z,27.80
2018-03-22T16:40:17.623Z,25.93
2018-03-22T16:42:45.242Z,29.60
2018-03-22T16:45:12.854Z,25.00
2018-03-22T16:47:40.484Z,25.93
2018-03-22T16:50:08.072Z,27.33
2018-03-22T16:52:35.670Z,26.33
2018-03-22T16:55:03.306Z,23.30
2018-03-22T16:57:30.966Z,28.10
2018-03-22T16:59:58.604Z,25.80
2018-03-22T17:02:26.222Z,24.90
2018-03-22T17:04:53.866Z,21.47
2018-03-22T17:07:21.552Z,23.37
2018-03-22T17:09:49.166Z,14.80
2018-03-22T17:12:16.874Z,24.27
2018-03-22T17:14:44.462Z,23.50
2018-03-22T17:17:12.094Z,27.17
2018-03-22T17:19:39.685Z,21.23
2018-03-22T17:22:07.273Z,29.20
2018-03-22T17:24:34.888Z,27.50
2018-03-22T17:27:02.541Z,24.60
2018-03-22T17:29:30.179Z,24.27
2018-03-22T17:31:57.829Z,27.30
2018-03-22T17:34:25.397Z,27.07
2018-03-22T17:36:52.989Z,28.53
2018-03-22T17:39:20.648Z,20.83
2018-03-22T17:41:48.393Z,25.67
2018-03-22T17:44:16.049Z,30.20
2018-03-22T17:46:43.679Z,29.77
2018-03-22T17:49:11.266Z,30.00
2018-03-22T17:51:38.892Z,28.97
2018-03-22T17:54:06.515Z,27.73
2018-03-22T17:56:34.106Z,31.17
2018-03-22T17:59:01.695Z,28.40
2018-03-22T18:01:29.322Z,32.30
2018-03-22T18:03:56.910Z,30.00
2018-03-22T18:06:24.485Z,30.00
2018-03-22T18:08:52.094Z,26.97
2018-03-22T18:11:19.709Z,30.67
2018-03-22T18:13:47.296Z,26.77
2018-03-22T18:16:14.925Z,27.03
2018-03-22T18:18:42.507Z,27.40
2018-03-22T18:21:10.087Z,26.20
2018-03-22T18:23:37.720Z,25.57
2018-03-22T18:26:05.305Z,25.37
2018-03-22T18:28:32.892Z,26.47
2018-03-22T18:31:00.505Z,22.27
2018-03-22T18:33:28.092Z,25.80
2018-03-22T18:35:55.725Z,27.33
2018-03-22T18:38:23.342Z,32.90
2018-03-22T18:40:50.937Z,31.77
2018-03-22T18:43:18.526Z,39.30
2018-03-22T18:45:46.146Z,29.77
2018-03-22T18:48:13.775Z,34.53
2018-03-22T18:50:41.433Z,34.13
2018-03-22T18:53:09.055Z,13.83
2018-03-22T18:55:36.704Z,14.10
2018-03-22T18:58:04.323Z,20.07
2018-03-22T19:00:31.950Z,14.97
2018-03-22T19:02:59.532Z,14.87
2018-03-22T19:05:27.926Z,16.00
2018-03-22T19:07:55.554Z,15.53
2018-03-22T19:10:23.127Z,15.10
2018-03-22T19:12:50.694Z,16.57
2018-03-22T19:15:18.307Z,15.70
2018-03-22T19:17:45.896Z,12.70
2018-03-22T19:20:13.502Z,16.03
2018-03-22T19:22:41.111Z,13.00
2018-03-22T19:25:08.687Z,12.10
2018-03-22T19:27:36.270Z,15.60
2018-03-22T19:30:03.942Z,14.70
2018-03-22T19:32:31.535Z,17.87
2018-03-22T19:34:59.119Z,17.93
2018-03-22T19:37:26.760Z,16.50
2018-03-22T19:39:54.338Z,13.00
2018-03-22T19:42:21.942Z,9.37
2018-03-22T19:44:49.561Z,10.60
2018-03-22T19:47:17.151Z,18.60
2018-03-22T19:49:44.745Z,15.67
2018-03-22T19:52:12.382Z,15.97
2018-03-22T19:54:39.983Z,15.17
2018-03-22T19:57:07.579Z,17.73
2018-03-22T19:59:35.203Z,19.70
2018-03-22T20:02:02.785Z,16.80
2018-03-22T20:04:30.377Z,15.40
2018-03-22T20:06:57.979Z,16.77
2018-03-22T20:09:25.599Z,16.60
2018-03-22T20:11:53.196Z,13.53
2018-03-22T20:14:20.848Z,16.67
2018-03-22T20:16:48.466Z,12.70
2018-03-22T20:19:16.061Z,17.33
2018-03-22T20:21:43.685Z,14.83
2018-03-22T20:24:11.262Z,18.83
2018-03-22T20:26:38.844Z,13.87
2018-03-22T20:29:06.463Z,14.27
2018-03-22T20:31:34.033Z,13.73
2018-03-22T20:34:01.600Z,11.10
2018-03-22T20:36:29.230Z,14.90
2018-03-22T20:38:56.821Z,17.07
2018-03-22T20:41:24.405Z,12.87
2018-03-22T20:43:52.020Z,21.23
2018-03-22T20:46:19.584Z,11.80
2018-03-22T20:48:47.159Z,17.10
2018-03-22T20:51:14.813Z,20.37
2018-03-22T20:53:42.373Z,13.63
2018-03-22T20:56:10.015Z,19.57
2018-03-22T20:58:37.635Z,20.17
2018-03-22T21:01:05.300Z,19.63
2018-03-22T21:03:32.881Z,18.13
2018-03-22T21:06:00.495Z,19.50
2018-03-22T21:08:28.098Z,19.33
2018-03-22T21:10:55.669Z,18.40
2018-03-22T21:13:23.268Z,13.53
2018-03-22T21:15:50.858Z,16.50
2018-03-22T21:18:18.450Z,15.30
2018-03-22T21:20:46.124Z,14.47
2018-03-22T21:23:13.692Z,12.57
2018-03-22T21:25:41.279Z,16.00
2018-03-22T21:28:08.927Z,12.03
2018-03-22T21:30:36.519Z,11.43
2018-03-22T21:33:04.114Z,10.13
2018-03-22T21:35:31.770Z,15.40
2018-03-22T21:37:59.365Z,11.07
2018-03-22T21:40:26.941Z,14.97
2018-03-22T21:42:54.556Z,10.33
2018-03-22T21:45:22.143Z,15.80
2018-03-22T21:47:49.722Z,10.20
2018-03-22T21:50:17.325Z,10.17
2018-03-22T21:52:47.694Z,14.27
2018-03-22T21:55:15.287Z,15.43
2018-03-22T21:57:42.895Z,16.27
2018-03-22T22:00:10.483Z,15.40
2018-03-22T22:02:38.064Z,15.03
2018-03-22T22:05:05.697Z,14.23
2018-03-22T22:07:33.294Z,15.60
2018-03-22T22:10:00.907Z,13.40
2018-03-22T22:12:28.510Z,12.97
2018-03-22T22:14:56.092Z,11.40
2018-03-22T22:17:23.659Z,13.73
2018-03-22T22:19:51.258Z,14.40
2018-03-22T22:22:18.814Z,16.40
2018-03-22T22:24:46.404Z,13.93
2018-03-22T22:27:14.010Z,13.50
2018-03-22T22:29:41.596Z,13.60
2018-03-22T22:32:09.181Z,14.10
2018-03-22T22:34:36.783Z,14.77
2018-03-22T22:37:04.379Z,12.90
2018-03-22T22:39:31.944Z,13.40
2018-03-22T22:41:59.687Z,13.80
2018-03-22T22:44:27.256Z,14.00
2018-03-22T22:46:54.837Z,15.10
2018-03-22T22:49:22.457Z,16.73
2018-03-22T22:51:50.048Z,14.97
2018-03-22T22:54:17.634Z,14.50
2018-03-22T22:56:45.672Z,12.70
2018-03-22T22:59:13.225Z,13.80
2018-03-22T23:01:40.804Z,14.50
2018-03-22T23:04:08.410Z,10.77
2018-03-22T23:06:35.981Z,13.77
2018-03-22T23:09:03.652Z,13.90
2018-03-22T23:11:31.269Z,15.30
2018-03-22T23:13:58.851Z,14.93
2018-03-22T23:16:26.460Z,13.50
2018-03-22T23:18:54.060Z,15.47
2018-03-22T23:21:21.625Z,14.03
2018-03-22T23:23:49.214Z,14.40
2018-03-22T23:26:16.824Z,12.40
2018-03-22T23:28:44.426Z,12.60
2018-03-22T23:31:12.018Z,15.00
2018-03-22T23:33:39.657Z,14.10
2018-03-22T23:36:07.293Z,12.00
2018-03-22T23:38:34.882Z,13.00
2018-03-22T23:41:02.505Z,12.30
2018-03-22T23:43:30.096Z,16.43
2018-03-22T23:45:57.691Z,13.27
2018-03-22T23:48:25.330Z,16.50
2018-03-22T23:50:52.922Z,15.43
2018-03-22T23:53:20.514Z,15.13
2018-03-22T23:55:48.156Z,15.50
2018-03-22T23:58:15.823Z,14.20
